Time;durP1;ratioP1;P1;durP2;ratioP2;P2;SDS_P1;SDS_P2;PMS_P1;PMS_P2;Temp;Humidity;BMP_temperature;BMP_pressure;BME280_temperature;BME280_humidity;BME280_pressure;Samples;Min_cycle;Max_cycle;Signal;HPM_P1;HPM_P2
2022/09/30 00:01:24;;;;;;;13.38;10.75;;;24.40;99.90;;;;;;1963111;71;21066;-85
2022/09/30 00:03:56;;;;;;;12.25;10.95;;;24.40;99.90;;;;;;1920347;73;21580;-85
2022/09/30 00:06:29;;;;;;;15.55;11.60;;;24.40;99.90;;;;;;1963814;71;21089;-84
2022/09/30 00:09:00;;;;;;;11.83;9.60;;;24.40;99.90;;;;;;1977906;72;21635;-84
2022/09/30 00:11:38;;;;;;;14.18;9.50;;;24.40;99.90;;;;;;1960052;71;21143;-85
2022/09/30 00:14:11;;;;;;;10.58;9.58;;;24.40;99.90;;;;;;1967182;72;21100;-85
2022/09/30 00:16:50;;;;;;;11.00;9.45;;;24.40;99.90;;;;;;1966254;72;21152;-85
2022/09/30 00:19:18;;;;;;;11.70;9.65;;;24.40;99.90;;;;;;1962101;71;21671;-85
2022/09/30 00:21:50;;;;;;;10.43;9.23;;;24.50;99.90;;;;;;1957682;71;21127;-85
2022/09/30 00:24:21;;;;;;;14.87;10.25;;;24.40;99.90;;;;;;1967357;71;21115;-82
2022/09/30 00:26:52;;;;;;;10.90;9.80;;;24.40;99.90;;;;;;1946305;71;21342;-84
2022/09/30 00:29:25;;;;;;;10.68;9.18;;;24.50;99.90;;;;;;1973372;71;21069;-84
2022/09/30 00:31:54;;;;;;;11.53;9.33;;;24.40;99.90;;;;;;1883583;75;21068;-84
2022/09/30 00:34:25;;;;;;;10.75;9.60;;;24.40;99.90;;;;;;1952837;71;21548;-85
2022/09/30 00:36:56;;;;;;;10.23;9.05;;;24.50;99.90;;;;;;1967722;71;21128;-83
2022/09/30 00:39:29;;;;;;;12.07;9.23;;;24.50;99.90;;;;;;1978297;71;21206;-85
2022/09/30 00:42:03;;;;;;;10.00;9.00;;;24.50;99.90;;;;;;1967274;71;21128;-84
2022/09/30 00:44:36;;;;;;;10.05;9.05;;;24.50;99.90;;;;;;1956681;72;21182;-84
2022/09/30 00:47:09;;;;;;;10.82;8.20;;;24.50;99.90;;;;;;1963376;71;21639;-86
2022/09/30 00:49:40;;;;;;;10.35;7.92;;;24.50;99.90;;;;;;1966827;71;21178;-86
2022/09/30 00:52:14;;;;;;;10.08;8.43;;;24.50;99.90;;;;;;1960227;71;21164;-85
2022/09/30 00:54:45;;;;;;;9.40;8.10;;;24.50;99.90;;;;;;1961206;71;21182;-84
2022/09/30 00:57:16;;;;;;;8.20;6.90;;;24.50;99.90;;;;;;1954658;71;21227;-84
2022/09/30 00:59:50;;;;;;;7.83;7.03;;;24.50;99.90;;;;;;1968478;71;21108;-85
2022/09/30 01:02:22;;;;;;;8.63;7.35;;;24.50;99.90;;;;;;1968004;71;21713;-84
2022/09/30 01:04:53;;;;;;;8.30;7.00;;;24.50;99.90;;;;;;1962943;72;21100;-85
2022/09/30 01:07:25;;;;;;;7.45;6.72;;;24.50;99.90;;;;;;1966971;71;21112;-80
2022/09/30 01:09:57;;;;;;;7.20;6.00;;;24.60;99.90;;;;;;1965319;71;21855;-81
2022/09/30 01:12:28;;;;;;;8.05;6.40;;;24.60;99.90;;;;;;1966983;71;21139;-81
2022/09/30 01:15:01;;;;;;;6.72;6.03;;;24.60;99.90;;;;;;1965307;71;21738;-82
2022/09/30 01:17:31;;;;;;;7.05;6.35;;;24.60;99.90;;;;;;1970439;72;21580;-82
2022/09/30 01:20:04;;;;;;;6.83;6.15;;;24.60;99.90;;;;;;1962762;71;21584;-83
2022/09/30 01:22:35;;;;;;;7.47;6.42;;;24.60;99.90;;;;;;1958696;71;21062;-81
2022/09/30 01:25:08;;;;;;;11.30;6.55;;;24.60;99.90;;;;;;1959651;71;21633;-82
2022/09/30 01:27:41;;;;;;;8.65;5.45;;;24.60;99.90;;;;;;1960095;72;21643;-80
2022/09/30 01:30:13;;;;;;;5.67;5.12;;;24.60;99.90;;;;;;1956964;72;21057;-81
2022/09/30 01:32:47;;;;;;;5.75;5.00;;;24.60;99.90;;;;;;1954948;72;21156;-82
2022/09/30 01:35:21;;;;;;;5.53;5.00;;;24.60;99.90;;;;;;1970059;70;21126;-82
2022/09/30 01:37:54;;;;;;;5.50;5.00;;;24.60;99.90;;;;;;1961892;71;21567;-81
2022/09/30 01:40:29;;;;;;;7.78;5.25;;;24.60;99.90;;;;;;1942305;72;21627;-82
2022/09/30 01:43:02;;;;;;;6.15;5.55;;;24.60;99.90;;;;;;1935964;72;21746;-81
2022/09/30 01:45:36;;;;;;;7.10;5.10;;;24.60;99.90;;;;;;1885491;75;21224;-82
2022/09/30 01:48:09;;;;;;;4.72;4.08;;;24.60;99.90;;;;;;1887719;74;21175;-80
2022/09/30 01:50:43;;;;;;;6.65;4.80;;;24.60;99.90;;;;;;1886474;75;21158;-82
2022/09/30 01:53:16;;;;;;;5.58;5.00;;;24.70;99.90;;;;;;1885780;75;21622;-80
2022/09/30 01:55:49;;;;;;;6.47;4.83;;;24.60;99.90;;;;;;1887532;75;21579;-80
2022/09/30 01:58:25;;;;;;;7.50;5.40;;;24.60;99.90;;;;;;1885459;75;21075;-82
2022/09/30 02:00:57;;;;;;;5.47;4.95;;;24.60;99.90;;;;;;1845874;75;21137;-83
2022/09/30 02:03:30;;;;;;;6.30;5.15;;;24.70;99.90;;;;;;1888246;75;21078;-81
2022/09/30 02:06:02;;;;;;;5.75;5.15;;;24.60;99.90;;;;;;1889305;74;21080;-82
2022/09/30 02:08:35;;;;;;;6.53;5.08;;;24.60;99.90;;;;;;1884443;74;21637;-80
2022/09/30 02:11:09;;;;;;;7.83;5.15;;;24.60;99.90;;;;;;1888813;74;21169;-80
2022/09/30 02:13:42;;;;;;;6.45;5.80;;;24.70;99.90;;;;;;1892613;74;21223;-81
2022/09/30 02:16:16;;;;;;;6.12;5.53;;;24.70;99.90;;;;;;1896952;74;21109;-81
2022/09/30 02:18:50;;;;;;;7.00;5.42;;;24.70;99.90;;;;;;1886083;75;21079;-82
2022/09/30 02:21:24;;;;;;;10.85;7.72;;;24.80;99.90;;;;;;1853044;77;21193;-81
2022/09/30 02:23:59;;;;;;;7.25;5.83;;;24.80;99.90;;;;;;1858013;76;21127;-81
2022/09/30 02:26:32;;;;;;;7.83;6.75;;;24.80;99.90;;;;;;1855513;76;21083;-81
2022/09/30 02:29:06;;;;;;;;;;;24.80;99.90;;;;;;1858443;76;21752;-82
2022/09/30 02:31:39;;;;;;;7.12;5.90;;;24.80;99.90;;;;;;1868685;75;20157;-83
2022/09/30 02:34:13;;;;;;;7.58;6.33;;;24.90;99.90;;;;;;1882865;74;21596;-83
2022/09/30 02:36:44;;;;;;;7.35;6.25;;;24.90;99.90;;;;;;1891196;73;21146;-83
2022/09/30 02:39:17;;;;;;;8.20;6.30;;;24.90;99.90;;;;;;1878333;73;21254;-82
2022/09/30 02:41:51;;;;;;;8.05;6.40;;;24.90;99.90;;;;;;1872223;74;21220;-83
2022/09/30 02:44:22;;;;;;;7.90;6.50;;;25.00;99.90;;;;;;1871805;75;21189;-83
2022/09/30 02:46:53;;;;;;;8.15;6.42;;;25.00;99.90;;;;;;1870474;75;21203;-83
2022/09/30 02:49:26;;;;;;;6.92;6.03;;;25.00;99.90;;;;;;1865273;75;21142;-84
2022/09/30 02:54:56;;;;;;;7.70;7.00;;;25.00;99.90;;;;;;1798559;78;21189;-83
2022/09/30 02:57:29;;;;;;;7.55;6.75;;;25.10;99.90;;;;;;1733601;81;21337;-82
2022/09/30 03:00:00;;;;;;;9.35;7.08;;;25.20;99.90;;;;;;1749402;80;21225;-82
2022/09/30 03:02:33;;;;;;;8.90;7.55;;;25.20;99.90;;;;;;1790289;78;21154;-82
2022/09/30 03:05:04;;;;;;;8.98;6.92;;;25.20;99.90;;;;;;1778446;78;21760;-84
2022/09/30 03:07:36;;;;;;;10.00;7.25;;;25.20;99.90;;;;;;1782620;78;21202;-84
2022/09/30 03:10:09;;;;;;;7.90;7.10;;;25.20;99.90;;;;;;1780815;78;21682;-82
2022/09/30 03:12:42;;;;;;;7.80;6.75;;;25.30;99.90;;;;;;1780554;78;21230;-82
2022/09/30 03:15:15;;;;;;;9.43;7.53;;;25.30;99.90;;;;;;1783588;78;21247;-84
2022/09/30 03:17:48;;;;;;;8.55;7.55;;;25.30;99.90;;;;;;1789717;78;21195;-83
2022/09/30 03:20:21;;;;;;;10.50;7.50;;;25.30;99.90;;;;;;1815510;77;21660;-84
2022/09/30 03:22:55;;;;;;;8.15;6.72;;;25.40;99.90;;;;;;1799290;77;21196;-84
2022/09/30 03:25:28;;;;;;;8.18;6.83;;;25.40;99.90;;;;;;1806712;77;21608;-83
2022/09/30 03:28:01;;;;;;;8.53;7.35;;;25.40;99.90;;;;;;1783807;79;21634;-83
2022/09/30 03:30:34;;;;;;;8.20;6.80;;;25.50;99.90;;;;;;1809606;77;21202;-84
2022/09/30 03:33:06;;;;;;;9.33;7.45;;;25.50;99.90;;;;;;1809423;77;21139;-84
2022/09/30 03:35:37;;;;;;;10.75;8.15;;;25.50;99.90;;;;;;1745364;79;21160;-84
2022/09/30 03:38:09;;;;;;;10.10;7.92;;;25.60;99.90;;;;;;1805188;77;21158;-84
2022/09/30 03:40:39;;;;;;;9.25;7.58;;;25.60;99.90;;;;;;1803797;77;21675;-84
2022/09/30 03:43:12;;;;;;;8.68;6.92;;;25.60;99.90;;;;;;1814686;77;21150;-82
2022/09/30 03:45:46;;;;;;;7.65;6.22;;;25.70;99.90;;;;;;1810666;77;21197;-83
2022/09/30 03:48:18;;;;;;;6.87;6.15;;;25.60;99.90;;;;;;1781006;78;21619;-84
2022/09/30 03:50:49;;;;;;;8.73;6.75;;;25.60;99.90;;;;;;1795226;78;21134;-84
2022/09/30 03:53:20;;;;;;;10.10;6.35;;;25.70;99.90;;;;;;1812369;77;21150;-84
2022/09/30 03:55:52;;;;;;;8.20;6.47;;;25.70;99.90;;;;;;1813998;77;21279;-83
2022/09/30 03:58:23;;;;;;;6.37;5.58;;;25.70;99.90;;;;;;1810258;78;21087;-84
2022/09/30 04:00:56;;;;;;;7.95;6.22;;;25.70;99.90;;;;;;1812752;77;21523;-84
2022/09/30 04:03:27;;;;;;;8.43;6.90;;;25.80;99.90;;;;;;1811452;78;21150;-83
2022/09/30 04:05:58;;;;;;;6.65;6.05;;;25.80;99.90;;;;;;1809969;77;21662;-83
2022/09/30 04:08:29;;;;;;;6.60;5.90;;;25.80;99.90;;;;;;1812471;77;21225;-86
2022/09/30 04:11:01;;;;;;;7.85;6.53;;;25.80;99.90;;;;;;1805747;78;21129;-83
2022/09/30 04:13:31;;;;;;;8.80;6.50;;;25.90;99.90;;;;;;1808014;77;21171;-83
2022/09/30 04:16:02;;;;;;;8.95;7.25;;;26.00;99.90;;;;;;1807756;77;21158;-84
2022/09/30 04:18:34;;;;;;;6.87;5.92;;;26.10;99.90;;;;;;1818359;77;22150;-83
2022/09/30 04:21:07;;;;;;;11.38;8.90;;;26.30;99.90;;;;;;1812716;77;21595;-83
2022/09/30 04:23:39;;;;;;;6.55;5.62;;;26.30;99.90;;;;;;1811825;77;21123;-84
2022/09/30 04:26:13;;;;;;;8.18;5.17;;;26.40;99.90;;;;;;1811785;77;21212;-85
2022/09/30 04:28:43;;;;;;;7.17;5.30;;;26.40;99.90;;;;;;1822601;77;21154;-85
2022/09/30 04:31:20;;;;;;;6.37;5.50;;;26.40;99.90;;;;;;1816677;77;21135;-83
2022/09/30 04:33:47;;;;;;;8.03;6.20;;;26.40;99.90;;;;;;1808739;77;21196;-84
2022/09/30 04:36:22;;;;;;;6.87;6.10;;;26.40;99.90;;;;;;1812443;77;21083;-84
2022/09/30 04:38:52;;;;;;;9.03;6.10;;;26.30;99.90;;;;;;1804933;77;21173;-84
2022/09/30 04:41:23;;;;;;;7.22;6.47;;;26.30;99.90;;;;;;1813634;78;21264;-85
2022/09/30 04:43:55;;;;;;;6.62;5.95;;;26.30;99.90;;;;;;1769689;79;21206;-84
2022/09/30 04:46:26;;;;;;;8.20;6.40;;;26.30;99.90;;;;;;1802564;78;21106;-84
2022/09/30 04:48:56;;;;;;;11.38;6.25;;;26.20;99.90;;;;;;1810447;78;21145;-84
2022/09/30 04:51:28;;;;;;;7.15;6.45;;;26.30;99.90;;;;;;1774895;79;21152;-83
2022/09/30 04:53:59;;;;;;;7.45;6.22;;;26.30;99.90;;;;;;1805108;78;21287;-83
2022/09/30 04:56:30;;;;;;;6.87;6.12;;;26.40;99.90;;;;;;1806005;77;21166;-82
2022/09/30 04:59:01;;;;;;;8.30;6.47;;;26.40;99.90;;;;;;1799895;78;21137;-83
2022/09/30 05:01:32;;;;;;;6.78;5.85;;;26.50;99.90;;;;;;1810703;77;21188;-83
2022/09/30 05:04:03;;;;;;;7.67;6.15;;;26.50;99.90;;;;;;1808237;78;21181;-83
2022/09/30 05:06:33;;;;;;;7.50;6.05;;;26.40;99.90;;;;;;1812603;77;21655;-83
2022/09/30 05:09:04;;;;;;;8.20;6.83;;;26.40;99.90;;;;;;1807324;78;21713;-83
2022/09/30 05:11:41;;;;;;;9.10;7.15;;;26.40;99.90;;;;;;1813571;77;21433;-82
2022/09/30 05:14:08;;;;;;;8.10;6.60;;;26.30;99.90;;;;;;1783434;79;21098;-84
2022/09/30 05:16:38;;;;;;;9.38;6.90;;;26.30;99.90;;;;;;1816204;77;21188;-82
2022/09/30 05:19:10;;;;;;;8.35;6.83;;;26.40;99.90;;;;;;1811823;77;21626;-84
2022/09/30 05:21:42;;;;;;;8.53;7.17;;;26.40;99.90;;;;;;1812552;77;21108;-82
2022/09/30 05:24:12;;;;;;;8.20;6.67;;;26.40;99.90;;;;;;1807791;78;21159;-82
2022/09/30 05:26:43;;;;;;;7.67;6.87;;;26.50;99.90;;;;;;1768321;80;21168;-83
2022/09/30 05:29:14;;;;;;;7.67;6.90;;;26.50;99.90;;;;;;1805670;78;21092;-82
2022/09/30 05:31:45;;;;;;;7.90;6.58;;;26.50;99.90;;;;;;1817350;78;21221;-82
2022/09/30 05:34:15;;;;;;;10.32;6.47;;;26.50;99.90;;;;;;1808856;77;21197;-83
2022/09/30 05:36:46;;;;;;;6.55;5.62;;;26.60;99.90;;;;;;1808278;77;21107;-82
2022/09/30 05:39:17;;;;;;;10.00;7.60;;;26.70;99.90;;;;;;1803125;78;21233;-82
2022/09/30 05:41:47;;;;;;;6.55;5.53;;;26.80;99.90;;;;;;1811248;78;21147;-83
2022/09/30 05:44:18;;;;;;;7.42;5.87;;;26.80;99.90;;;;;;1813372;77;21102;-84
2022/09/30 05:46:49;;;;;;;7.12;5.58;;;26.80;99.90;;;;;;1814850;78;21136;-81
2022/09/30 05:49:20;;;;;;;5.97;5.37;;;26.80;99.90;;;;;;1810389;78;21076;-82
2022/09/30 05:51:52;;;;;;;7.15;5.80;;;26.80;99.90;;;;;;1819925;77;21122;-83
2022/09/30 05:54:23;;;;;;;6.33;5.40;;;26.80;99.90;;;;;;1810369;78;21583;-74
2022/09/30 05:56:53;;;;;;;7.22;6.15;;;26.90;99.90;;;;;;1787591;80;21224;-72
2022/09/30 05:59:25;;;;;;;7.65;5.70;;;27.10;99.90;;;;;;1828036;78;21184;-73
2022/09/30 06:01:55;;;;;;;7.15;5.70;;;27.20;99.90;;;;;;1811862;78;21223;-73
2022/09/30 06:04:26;;;;;;;6.72;5.75;;;27.30;99.90;;;;;;1802689;77;21232;-73
2022/09/30 06:06:57;;;;;;;7.05;5.35;;;27.30;99.90;;;;;;1831905;77;21192;-73
2022/09/30 06:09:28;;;;;;;5.62;5.03;;;27.40;99.90;;;;;;1815116;77;21583;-73
2022/09/30 06:11:59;;;;;;;7.65;5.65;;;27.30;99.90;;;;;;1798658;79;21629;-73
2022/09/30 06:14:29;;;;;;;8.40;5.87;;;27.30;99.90;;;;;;1792972;78;21151;-73
2022/09/30 06:17:00;;;;;;;6.72;5.45;;;27.20;99.90;;;;;;1787472;78;21077;-73
2022/09/30 06:19:31;;;;;;;8.38;5.67;;;27.10;99.90;;;;;;1813432;79;21610;-73
2022/09/30 06:22:02;;;;;;;8.90;6.00;;;26.90;99.90;;;;;;1816565;78;21264;-73
2022/09/30 06:24:33;;;;;;;7.17;5.72;;;26.80;99.90;;;;;;1818210;77;21146;-72
2022/09/30 06:27:05;;;;;;;7.25;5.95;;;26.80;99.90;;;;;;1823929;77;21138;-74
2022/09/30 06:29:35;;;;;;;8.23;5.87;;;26.80;99.90;;;;;;1817648;77;21206;-74
2022/09/30 06:32:08;;;;;;;5.92;5.33;;;26.80;99.90;;;;;;1813913;77;21235;-74
2022/09/30 06:34:39;;;;;;;6.60;5.90;;;26.70;99.90;;;;;;1779127;79;21150;-72
2022/09/30 06:37:29;;;;;;;8.68;6.12;;;26.80;99.90;;;;;;1828802;77;21688;-73
2022/09/30 06:40:00;;;;;;;7.78;6.33;;;26.80;99.90;;;;;;1902274;74;21591;-74
2022/09/30 06:42:31;;;;;;;6.22;5.25;;;26.80;99.90;;;;;;1905110;74;21202;-73
2022/09/30 06:45:02;;;;;;;6.78;5.87;;;27.00;99.90;;;;;;1901191;74;21597;-74
2022/09/30 06:47:33;;;;;;;5.78;5.00;;;27.20;99.90;;;;;;1903490;74;21075;-74
2022/09/30 06:50:04;;;;;;;6.10;5.50;;;27.30;99.90;;;;;;1916187;74;21064;-74
2022/09/30 06:52:36;;;;;;;7.85;5.40;;;27.50;99.90;;;;;;1898577;74;21633;-72
2022/09/30 06:55:07;;;;;;;5.28;4.10;;;27.60;99.90;;;;;;1896983;75;21126;-73
2022/09/30 06:57:57;;;;;;;5.72;3.17;;;27.60;99.90;;;;;;1830865;76;21190;-74
2022/09/30 07:00:28;;;;;;;4.03;3.02;;;27.60;99.90;;;;;;1799611;78;21172;-73
2022/09/30 07:03:00;;;;;;;5.35;2.90;;;27.60;99.90;;;;;;1797479;77;21651;-73
2022/09/30 07:05:32;;;;;;;4.17;3.12;;;27.50;99.90;;;;;;1814279;77;21865;-73
2022/09/30 07:08:04;;;;;;;9.68;4.03;;;27.40;99.90;;;;;;1790033;78;21124;-73
2022/09/30 07:10:37;;;;;;;7.75;4.00;;;27.20;99.90;;;;;;1801168;78;21260;-73
2022/09/30 07:13:07;;;;;;;5.75;3.52;;;27.10;99.90;;;;;;1791006;77;21113;-73
2022/09/30 07:15:38;;;;;;;7.90;3.58;;;26.90;99.90;;;;;;1792464;77;21214;-73
2022/09/30 07:18:09;;;;;;;6.08;3.70;;;26.70;99.90;;;;;;1793135;78;21669;-73
2022/09/30 07:20:39;;;;;;;6.22;4.50;;;26.60;99.90;;;;;;1819605;77;21245;-72
2022/09/30 07:23:10;;;;;;;6.92;4.45;;;26.50;99.90;;;;;;1811809;77;21595;-73
2022/09/30 07:25:42;;;;;;;6.33;3.87;;;26.40;99.90;;;;;;1791092;79;21796;-73
2022/09/30 07:28:13;;;;;;;9.43;4.42;;;26.40;99.90;;;;;;1802047;78;21168;-73
2022/09/30 07:30:44;;;;;;;5.03;3.77;;;26.30;99.90;;;;;;1791075;78;21190;-73
2022/09/30 07:33:18;;;;;;;5.58;4.25;;;26.30;99.90;;;;;;1808120;77;21182;-73
2022/09/30 07:35:51;;;;;;;5.97;4.28;;;26.20;99.90;;;;;;1789184;79;21155;-73
2022/09/30 07:38:24;;;;;;;5.58;4.08;;;26.20;99.90;;;;;;1795233;78;21107;-73
2022/09/30 07:40:57;;;;;;;5.55;4.35;;;26.10;99.90;;;;;;1805599;77;21209;-72
2022/09/30 07:43:37;;;;;;;5.65;4.37;;;26.10;99.90;;;;;;1798949;77;21567;-73
2022/09/30 07:46:08;;;;;;;6.37;4.40;;;26.10;99.90;;;;;;1806263;77;21872;-73
2022/09/30 07:48:51;;;;;;;5.95;4.25;;;26.10;99.90;;;;;;1798912;77;21148;-73
2022/09/30 07:51:16;;;;;;;5.12;4.37;;;26.10;99.90;;;;;;1809526;77;21148;-74
2022/09/30 07:53:49;;;;;;;4.90;4.40;;;26.10;99.90;;;;;;1808908;77;21179;-73
2022/09/30 07:56:21;;;;;;;6.00;4.37;;;26.10;99.90;;;;;;1799241;77;21241;-74
2022/09/30 07:58:54;;;;;;;4.90;4.45;;;26.10;99.90;;;;;;1801732;78;21154;-73
2022/09/30 08:01:30;;;;;;;5.83;4.55;;;26.10;99.90;;;;;;1840808;77;21971;-72
2022/09/30 08:04:03;;;;;;;6.00;4.50;;;26.10;99.90;;;;;;1801088;77;21661;-75
2022/09/30 08:06:37;;;;;;;5.37;4.50;;;26.20;99.90;;;;;;1826283;78;22035;-73
2022/09/30 08:09:09;;;;;;;5.40;4.28;;;26.20;99.90;;;;;;1802844;79;21643;-73
2022/09/30 08:11:41;;;;;;;5.10;4.60;;;26.30;99.90;;;;;;1822964;78;21135;-73
2022/09/30 08:14:15;;;;;;;5.20;4.70;;;26.30;99.90;;;;;;1819399;77;21567;-73
2022/09/30 08:16:46;;;;;;;8.03;5.25;;;26.40;99.90;;;;;;1818764;77;21092;-74
2022/09/30 08:19:19;;;;;;;5.80;4.55;;;26.50;99.90;;;;;;1825444;77;21142;-74
2022/09/30 08:21:52;;;;;;;5.00;4.40;;;26.50;99.90;;;;;;1812939;78;21155;-72
2022/09/30 08:24:24;;;;;;;5.97;5.10;;;26.50;99.90;;;;;;1856831;77;21152;-74
2022/09/30 08:26:56;;;;;;;7.65;5.20;;;26.50;99.90;;;;;;1830327;78;21210;-73
2022/09/30 08:29:27;;;;;;;5.97;4.53;;;26.50;99.90;;;;;;1842213;77;21144;-74
2022/09/30 08:31:59;;;;;;;6.47;5.42;;;26.50;99.90;;;;;;1836207;76;21143;-74
2022/09/30 08:34:34;;;;;;;5.15;4.53;;;26.50;99.90;;;;;;1848426;77;21096;-73
2022/09/30 08:37:03;;;;;;;7.22;5.40;;;26.40;99.90;;;;;;1842983;77;21155;-74
2022/09/30 08:39:35;;;;;;;6.85;5.28;;;26.40;99.90;;;;;;1852916;77;21139;-74
2022/09/30 08:42:08;;;;;;;8.03;5.37;;;26.40;99.90;;;;;;1855910;77;21543;-74
2022/09/30 08:44:42;;;;;;;10.13;5.70;;;26.30;99.90;;;;;;1834137;76;21187;-74
2022/09/30 08:47:15;;;;;;;5.90;5.30;;;26.20;99.90;;;;;;1838018;78;21225;-73
2022/09/30 08:49:49;;;;;;;7.15;5.53;;;26.30;99.90;;;;;;1863234;75;21551;-73
2022/09/30 08:52:22;;;;;;;7.83;5.90;;;26.20;99.90;;;;;;1823168;77;21198;-74
2022/09/30 08:54:56;;;;;;;8.13;6.53;;;26.20;99.90;;;;;;1828683;77;21143;-73
2022/09/30 08:57:29;;;;;;;7.37;6.67;;;26.20;99.90;;;;;;1849672;76;21162;-73
2022/09/30 09:00:07;;;;;;;8.73;7.03;;;26.30;99.90;;;;;;1850961;75;21161;-73
2022/09/30 09:02:37;;;;;;;8.88;6.33;;;26.30;99.90;;;;;;1832855;76;21228;-73
2022/09/30 09:05:10;;;;;;;6.17;5.58;;;26.30;99.90;;;;;;1849299;76;21119;-75
2022/09/30 09:07:42;;;;;;;7.22;6.12;;;26.30;99.90;;;;;;1823607;76;21634;-74
2022/09/30 09:10:15;;;;;;;8.85;7.12;;;26.40;99.90;;;;;;1851565;75;21611;-74
2022/09/30 09:12:48;;;;;;;8.00;7.20;;;26.40;99.90;;;;;;1849800;76;21241;-75
2022/09/30 09:15:21;;;;;;;7.83;6.65;;;26.50;99.90;;;;;;1821824;77;21595;-74
2022/09/30 09:17:54;;;;;;;8.75;6.30;;;26.50;99.90;;;;;;1811578;78;21159;-74
2022/09/30 09:20:29;;;;;;;8.03;6.45;;;26.50;99.90;;;;;;1826281;76;21151;-74
2022/09/30 09:23:02;;;;;;;7.55;6.50;;;26.60;99.90;;;;;;1846249;75;21124;-74
2022/09/30 09:25:34;;;;;;;7.87;6.80;;;26.60;99.90;;;;;;1840128;77;21202;-75
2022/09/30 09:28:07;;;;;;;8.25;7.20;;;26.60;99.90;;;;;;1843868;77;21104;-75
2022/09/30 09:30:42;;;;;;;8.43;7.17;;;26.70;99.90;;;;;;1813098;78;21666;-74
2022/09/30 09:33:16;;;;;;;8.83;7.30;;;26.70;99.90;;;;;;1815262;77;21136;-75
2022/09/30 09:35:49;;;;;;;9.13;8.23;;;26.70;99.90;;;;;;1825296;77;21152;-75
2022/09/30 09:38:25;;;;;;;8.80;6.75;;;26.80;99.90;;;;;;1819555;77;21127;-72
2022/09/30 09:40:56;;;;;;;9.78;6.67;;;26.80;99.90;;;;;;1806096;77;21183;-73
2022/09/30 09:43:30;;;;;;;8.20;6.22;;;26.80;99.90;;;;;;1826876;76;21183;-74
2022/09/30 09:46:03;;;;;;;7.95;6.65;;;26.80;99.90;;;;;;1821592;77;21217;-74
2022/09/30 09:48:34;;;;;;;9.05;7.08;;;26.80;99.90;;;;;;1805269;78;21140;-73
2022/09/30 09:51:07;;;;;;;9.03;7.40;;;26.80;99.90;;;;;;1827009;76;21163;-73
2022/09/30 09:53:40;;;;;;;8.93;7.45;;;26.80;99.90;;;;;;1839665;76;22093;-74
2022/09/30 09:56:20;;;;;;;7.08;5.85;;;26.80;99.90;;;;;;1807608;79;21151;-73
2022/09/30 09:58:48;;;;;;;11.65;7.22;;;26.80;99.90;;;;;;1822914;77;21515;-74
2022/09/30 10:01:31;;;;;;;10.63;7.05;;;26.80;99.90;;;;;;1813125;77;21129;-75
2022/09/30 10:03:56;;;;;;;8.23;7.42;;;26.90;99.90;;;;;;1867000;76;21123;-75
2022/09/30 10:06:28;;;;;;;8.80;7.22;;;26.80;99.90;;;;;;1823738;76;21658;-74
2022/09/30 10:08:59;;;;;;;8.68;7.62;;;26.80;99.90;;;;;;1814417;77;21207;-74
2022/09/30 10:11:30;;;;;;;8.00;6.40;;;26.80;99.90;;;;;;1818607;76;21164;-74
2022/09/30 10:14:01;;;;;;;9.73;7.35;;;26.80;99.90;;;;;;1844447;76;21658;-74
2022/09/30 10:16:34;;;;;;;9.38;6.42;;;26.80;99.90;;;;;;1839702;76;21726;-74
2022/09/30 10:19:07;;;;;;;7.37;6.60;;;26.80;99.90;;;;;;1815094;77;21151;-74
2022/09/30 10:21:39;;;;;;;12.45;7.42;;;26.80;99.90;;;;;;1854349;76;21653;-74
2022/09/30 10:24:12;;;;;;;8.10;7.30;;;26.80;99.90;;;;;;1866724;75;21510;-73
2022/09/30 10:26:45;;;;;;;8.58;6.62;;;26.80;99.90;;;;;;1846854;76;21111;-74
2022/09/30 10:29:19;;;;;;;8.25;6.90;;;26.80;99.90;;;;;;1853457;75;21182;-74
2022/09/30 10:31:52;;;;;;;9.08;7.35;;;26.80;99.90;;;;;;1851638;75;21143;-73
2022/09/30 10:34:26;;;;;;;8.45;6.80;;;26.80;99.90;;;;;;1831851;77;21159;-74
2022/09/30 10:36:59;;;;;;;9.43;7.30;;;26.80;99.90;;;;;;1864551;75;21127;-75
2022/09/30 10:39:32;;;;;;;10.40;7.55;;;26.80;99.90;;;;;;1851474;75;21673;-75
2022/09/30 10:42:09;;;;;;;11.83;8.33;;;26.80;99.90;;;;;;1853256;75;21160;-75
2022/09/30 10:44:40;;;;;;;12.70;7.05;;;26.80;99.90;;;;;;1864628;75;21141;-74
2022/09/30 10:47:13;;;;;;;8.63;7.05;;;26.80;99.90;;;;;;1816625;77;21694;-75
2022/09/30 10:49:46;;;;;;;6.87;6.20;;;26.70;99.90;;;;;;1854010;75;21142;-75
2022/09/30 10:52:18;;;;;;;9.55;6.37;;;26.70;99.90;;;;;;1847874;76;21146;-74
2022/09/30 10:54:52;;;;;;;6.55;4.42;;;26.70;99.90;;;;;;1838562;76;21160;-74
2022/09/30 10:57:24;;;;;;;6.42;4.40;;;26.70;99.90;;;;;;1821522;76;21319;-75
2022/09/30 10:59:57;;;;;;;8.65;4.97;;;26.60;99.90;;;;;;1845208;76;21124;-75
2022/09/30 11:02:29;;;;;;;7.22;5.35;;;26.50;99.90;;;;;;1823209;76;21092;-75
2022/09/30 11:05:00;;;;;;;6.47;4.83;;;26.40;99.90;;;;;;1817722;76;21242;-75
2022/09/30 11:07:34;;;;;;;7.87;4.70;;;26.40;99.90;;;;;;1840103;76;21147;-76
2022/09/30 11:10:07;;;;;;;7.20;5.28;;;26.30;99.90;;;;;;1796127;78;21687;-76
2022/09/30 11:12:40;;;;;;;7.78;4.85;;;26.30;99.90;;;;;;1825638;77;21092;-75
2022/09/30 11:15:11;;;;;;;5.85;4.60;;;26.20;99.90;;;;;;1806842;77;21144;-75
2022/09/30 11:17:43;;;;;;;7.40;5.85;;;26.20;99.90;;;;;;1814736;77;21104;-75
2022/09/30 11:20:16;;;;;;;8.15;6.30;;;26.20;99.90;;;;;;1796635;78;21221;-74
2022/09/30 11:22:50;;;;;;;8.65;6.25;;;26.20;99.90;;;;;;1827313;76;21132;-84
2022/09/30 11:25:23;;;;;;;7.37;6.42;;;26.20;99.90;;;;;;1848508;76;21206;-83
2022/09/30 11:27:56;;;;;;;9.33;6.55;;;26.20;99.90;;;;;;1842546;77;21221;-87
2022/09/30 11:30:33;;;;;;;8.80;7.00;;;26.10;99.90;;;;;;1815513;77;21163;-87
2022/09/30 11:33:06;;;;;;;9.80;7.53;;;26.10;99.90;;;;;;1838159;76;21530;-87
2022/09/30 11:35:40;;;;;;;16.35;12.70;;;26.10;99.90;;;;;;1821705;76;21257;-86
2022/09/30 11:38:28;;;;;;;11.95;8.10;;;26.00;99.90;;;;;;1809700;76;21132;-85
2022/09/30 11:41:01;;;;;;;7.08;5.12;;;26.00;99.90;;;;;;1825547;77;21248;-85
2022/09/30 11:43:34;;;;;;;8.78;6.12;;;26.00;99.90;;;;;;1823759;77;21724;-86
2022/09/30 11:46:07;;;;;;;7.78;5.00;;;25.90;99.90;;;;;;1820414;77;21120;-86
2022/09/30 11:48:45;;;;;;;5.78;5.15;;;25.90;99.90;;;;;;1828195;77;21202;-84
2022/09/30 11:51:18;;;;;;;6.08;4.72;;;25.90;99.90;;;;;;1819630;77;21155;-86
2022/09/30 11:53:52;;;;;;;5.37;4.30;;;25.90;99.90;;;;;;1820317;77;21234;-84
2022/09/30 11:56:25;;;;;;;5.22;4.58;;;25.90;99.90;;;;;;1832108;76;21171;-85
2022/09/30 11:58:58;;;;;;;6.67;4.28;;;25.90;99.90;;;;;;1807414;78;21628;-85
2022/09/30 12:01:32;;;;;;;5.10;3.83;;;25.90;99.90;;;;;;1826672;77;22469;-85
2022/09/30 12:04:04;;;;;;;3.92;3.50;;;25.90;99.90;;;;;;1844666;76;21207;-84
2022/09/30 12:06:37;;;;;;;5.83;3.60;;;25.90;99.90;;;;;;1849949;76;21117;-86
2022/09/30 12:09:31;;;;;;;5.08;3.83;;;25.90;99.90;;;;;;1850572;77;21643;-85
2022/09/30 12:12:05;;;;;;;4.90;3.87;;;25.80;99.90;;;;;;1847776;76;21647;-86
2022/09/30 12:14:58;;;;;;;8.50;4.30;;;25.80;99.90;;;;;;1809357;77;21197;-85
2022/09/30 12:17:31;;;;;;;7.50;4.58;;;25.80;99.90;;;;;;1843863;76;21144;-84
2022/09/30 12:20:04;;;;;;;5.42;4.30;;;25.80;99.90;;;;;;1841452;77;21149;-85
2022/09/30 12:22:57;;;;;;;6.85;4.97;;;25.80;99.90;;;;;;1843453;76;21188;-86
2022/09/30 12:25:31;;;;;;;7.75;4.85;;;25.70;99.90;;;;;;1840584;76;21112;-84
2022/09/30 12:30:15;;;;;;;5.58;4.20;;;25.70;99.90;;;;;;1815215;78;21148;-84
2022/09/30 12:30:57;;;;;;;6.75;4.37;;;25.70;99.90;;;;;;1799375;79;21105;-85
2022/09/30 12:33:51;;;;;;;5.85;4.15;;;25.60;99.90;;;;;;1829660;78;21087;-82
2022/09/30 12:36:30;;;;;;;5.42;4.30;;;25.60;99.90;;;;;;1832192;78;21151;-84
2022/09/30 12:39:23;;;;;;;5.25;4.00;;;25.50;99.90;;;;;;1808770;78;21187;-85
2022/09/30 12:42:14;;;;;;;5.10;3.67;;;25.50;99.90;;;;;;1832888;77;21224;-84
2022/09/30 12:44:54;;;;;;;5.78;3.20;;;25.50;99.90;;;;;;1825556;77;21163;-85
2022/09/30 12:47:45;;;;;;;6.50;3.67;;;25.40;99.90;;;;;;1828721;77;21116;-83
2022/09/30 12:50:39;;;;;;;8.00;3.20;;;25.40;99.90;;;;;;1813712;78;21127;-85
2022/09/30 12:53:17;;;;;;;5.35;3.05;;;25.40;99.90;;;;;;1809082;78;21632;-84
2022/09/30 12:56:13;;;;;;;4.87;2.92;;;25.30;99.90;;;;;;1845170;77;21633;-84
2022/09/30 12:58:53;;;;;;;5.72;3.00;;;25.40;99.90;;;;;;1843735;77;21190;-83
2022/09/30 13:01:41;;;;;;;4.55;3.37;;;25.30;99.90;;;;;;1816239;77;21269;-83
2022/09/30 13:04:27;;;;;;;4.25;3.17;;;25.40;99.90;;;;;;1819413;77;21692;-84
2022/09/30 13:07:00;;;;;;;7.33;4.15;;;25.40;99.90;;;;;;1821994;77;21170;-84
2022/09/30 13:09:37;;;;;;;5.95;3.45;;;25.40;99.90;;;;;;1827195;76;21224;-84
2022/09/30 13:12:35;;;;;;;8.93;4.40;;;25.40;99.90;;;;;;1815360;76;21610;-84
2022/09/30 13:15:16;;;;;;;6.75;4.10;;;25.40;99.90;;;;;;1786070;78;21146;-85
2022/09/30 13:17:57;;;;;;;7.00;4.12;;;25.40;99.90;;;;;;1817520;78;21257;-85
2022/09/30 13:20:31;;;;;;;6.30;4.17;;;25.40;99.90;;;;;;1845185;76;21109;-85